sensor_id;sensor_type;location;lat;lon;timestamp;pressure;altitude;pressure_sealevel;temperature;humidity
16613;BME280;8419;52.358;9.752;2023-06-19T00:00:16;100476.00;;;31.31;25.46
16613;BME280;8419;52.358;9.752;2023-06-19T00:03:02;100470.00;;;31.24;25.61
16613;BME280;8419;52.358;9.752;2023-06-19T00:05:48;100471.00;;;31.23;25.62
16613;BME280;8419;52.358;9.752;2023-06-19T00:08:33;100468.00;;;31.26;25.63
16613;BME280;8419;52.358;9.752;2023-06-19T00:11:18;100466.00;;;31.25;25.67
16613;BME280;8419;52.358;9.752;2023-06-19T00:14:04;100462.00;;;31.19;25.78
16613;BME280;8419;52.358;9.752;2023-06-19T00:16:49;100462.00;;;31.13;25.86
16613;BME280;8419;52.358;9.752;2023-06-19T00:19:36;100453.00;;;31.11;25.93
16613;BME280;8419;52.358;9.752;2023-06-19T00:22:24;100453.00;;;31.09;25.99
16613;BME280;8419;52.358;9.752;2023-06-19T00:25:11;100447.00;;;31.07;26.03
16613;BME280;8419;52.358;9.752;2023-06-19T00:27:56;100450.00;;;31.07;26.04
16613;BME280;8419;52.358;9.752;2023-06-19T00:30:42;100453.00;;;31.09;26.05
16613;BME280;8419;52.358;9.752;2023-06-19T00:33:27;100443.00;;;31.11;26.03
16613;BME280;8419;52.358;9.752;2023-06-19T00:36:16;100434.00;;;31.11;26.05
16613;BME280;8419;52.358;9.752;2023-06-19T00:39:05;100443.00;;;31.11;26.08
16613;BME280;8419;52.358;9.752;2023-06-19T00:41:52;100440.00;;;31.09;26.09
16613;BME280;8419;52.358;9.752;2023-06-19T00:44:37;100440.00;;;31.09;26.13
16613;BME280;8419;52.358;9.752;2023-06-19T00:47:24;100429.00;;;31.06;26.16
16613;BME280;8419;52.358;9.752;2023-06-19T00:50:11;100429.00;;;31.03;26.23
16613;BME280;8419;52.358;9.752;2023-06-19T00:52:57;100427.00;;;31.05;26.24
16613;BME280;8419;52.358;9.752;2023-06-19T00:55:43;100425.00;;;30.97;26.34
16613;BME280;8419;52.358;9.752;2023-06-19T00:58:29;100425.00;;;30.94;26.45
16613;BME280;8419;52.358;9.752;2023-06-19T01:01:14;100418.00;;;30.96;26.42
16613;BME280;8419;52.358;9.752;2023-06-19T01:04:00;100412.00;;;30.93;26.46
16613;BME280;8419;52.358;9.752;2023-06-19T01:06:52;100406.00;;;30.94;26.46
16613;BME280;8419;52.358;9.752;2023-06-19T01:09:46;100403.00;;;30.90;26.51
16613;BME280;8419;52.358;9.752;2023-06-19T01:12:37;100400.00;;;30.92;26.50
16613;BME280;8419;52.358;9.752;2023-06-19T01:15:23;100399.00;;;30.92;26.49
16613;BME280;8419;52.358;9.752;2023-06-19T01:18:10;100396.00;;;30.93;26.46
16613;BME280;8419;52.358;9.752;2023-06-19T01:20:56;100391.00;;;30.95;26.47
16613;BME280;8419;52.358;9.752;2023-06-19T01:23:42;100387.00;;;30.93;26.44
16613;BME280;8419;52.358;9.752;2023-06-19T01:26:28;100390.00;;;30.90;26.51
16613;BME280;8419;52.358;9.752;2023-06-19T01:29:14;100403.00;;;30.90;26.68
16613;BME280;8419;52.358;9.752;2023-06-19T01:32:06;100403.00;;;31.04;26.49
16613;BME280;8419;52.358;9.752;2023-06-19T01:34:56;100398.00;;;30.79;26.83
16613;BME280;8419;52.358;9.752;2023-06-19T01:37:43;100391.00;;;30.77;26.85
16613;BME280;8419;52.358;9.752;2023-06-19T01:40:31;100388.00;;;30.78;26.82
16613;BME280;8419;52.358;9.752;2023-06-19T01:43:18;100388.00;;;30.80;26.80
16613;BME280;8419;52.358;9.752;2023-06-19T01:46:04;100381.00;;;30.84;26.75
16613;BME280;8419;52.358;9.752;2023-06-19T01:48:49;100383.00;;;30.80;26.79
16613;BME280;8419;52.358;9.752;2023-06-19T01:51:35;100390.00;;;30.79;26.80
16613;BME280;8419;52.358;9.752;2023-06-19T01:54:21;100389.00;;;30.76;26.87
16613;BME280;8419;52.358;9.752;2023-06-19T01:57:07;100393.00;;;30.73;26.90
16613;BME280;8419;52.358;9.752;2023-06-19T01:59:53;100384.00;;;30.69;26.96
16613;BME280;8419;52.358;9.752;2023-06-19T02:02:39;100392.00;;;30.67;26.99
16613;BME280;8419;52.358;9.752;2023-06-19T02:05:24;100390.00;;;30.63;27.04
16613;BME280;8419;52.358;9.752;2023-06-19T02:08:10;100386.00;;;30.59;27.07
16613;BME280;8419;52.358;9.752;2023-06-19T02:10:55;100395.00;;;30.58;27.08
16613;BME280;8419;52.358;9.752;2023-06-19T02:13:41;100400.00;;;30.52;27.15
16613;BME280;8419;52.358;9.752;2023-06-19T02:16:27;100396.00;;;30.48;27.21
16613;BME280;8419;52.358;9.752;2023-06-19T02:19:13;100394.00;;;30.54;27.15
16613;BME280;8419;52.358;9.752;2023-06-19T02:21:58;100396.00;;;30.53;27.12
16613;BME280;8419;52.358;9.752;2023-06-19T02:24:44;100376.00;;;30.53;27.13
16613;BME280;8419;52.358;9.752;2023-06-19T02:27:29;100371.00;;;30.51;27.15
16613;BME280;8419;52.358;9.752;2023-06-19T02:30:15;100370.00;;;30.80;26.78
16613;BME280;8419;52.358;9.752;2023-06-19T02:33:01;100367.00;;;30.62;26.98
16613;BME280;8419;52.358;9.752;2023-06-19T02:35:46;100367.00;;;30.59;27.05
16613;BME280;8419;52.358;9.752;2023-06-19T02:38:32;100362.00;;;30.53;27.11
16613;BME280;8419;52.358;9.752;2023-06-19T02:41:17;100355.00;;;30.48;27.19
16613;BME280;8419;52.358;9.752;2023-06-19T02:44:03;100351.00;;;30.49;27.20
16613;BME280;8419;52.358;9.752;2023-06-19T02:46:49;100340.00;;;30.59;27.09
16613;BME280;8419;52.358;9.752;2023-06-19T02:49:34;100347.00;;;30.53;27.14
16613;BME280;8419;52.358;9.752;2023-06-19T02:52:19;100349.00;;;30.53;27.21
16613;BME280;8419;52.358;9.752;2023-06-19T02:55:07;100342.00;;;30.50;27.22
16613;BME280;8419;52.358;9.752;2023-06-19T02:57:53;100355.00;;;30.45;27.28
16613;BME280;8419;52.358;9.752;2023-06-19T03:00:38;100336.00;;;30.43;27.29
16613;BME280;8419;52.358;9.752;2023-06-19T03:03:24;100343.00;;;30.50;27.17
16613;BME280;8419;52.358;9.752;2023-06-19T03:06:09;100344.00;;;30.58;27.08
16613;BME280;8419;52.358;9.752;2023-06-19T03:08:55;100345.00;;;30.54;27.11
16613;BME280;8419;52.358;9.752;2023-06-19T03:11:41;100332.00;;;30.50;27.13
16613;BME280;8419;52.358;9.752;2023-06-19T03:14:27;100337.00;;;30.45;27.23
16613;BME280;8419;52.358;9.752;2023-06-19T03:17:13;100336.00;;;30.43;27.27
16613;BME280;8419;52.358;9.752;2023-06-19T03:19:59;100334.00;;;30.42;27.28
16613;BME280;8419;52.358;9.752;2023-06-19T03:22:44;100329.00;;;30.56;27.13
16613;BME280;8419;52.358;9.752;2023-06-19T03:25:29;100330.00;;;30.51;27.16
16613;BME280;8419;52.358;9.752;2023-06-19T03:28:19;100334.00;;;30.52;27.16
16613;BME280;8419;52.358;9.752;2023-06-19T03:31:05;100329.00;;;30.39;27.31
16613;BME280;8419;52.358;9.752;2023-06-19T03:33:50;100338.00;;;30.36;27.37
16613;BME280;8419;52.358;9.752;2023-06-19T03:36:36;100349.00;;;30.38;27.34
16613;BME280;8419;52.358;9.752;2023-06-19T03:39:21;100350.00;;;30.37;27.36
16613;BME280;8419;52.358;9.752;2023-06-19T03:42:08;100345.00;;;30.34;27.38
16613;BME280;8419;52.358;9.752;2023-06-19T03:44:54;100351.00;;;30.42;27.26
16613;BME280;8419;52.358;9.752;2023-06-19T03:47:39;100355.00;;;30.45;27.22
16613;BME280;8419;52.358;9.752;2023-06-19T03:50:24;100357.00;;;30.44;27.19
16613;BME280;8419;52.358;9.752;2023-06-19T03:53:10;100361.00;;;30.39;27.23
16613;BME280;8419;52.358;9.752;2023-06-19T03:55:56;100366.00;;;30.40;27.19
16613;BME280;8419;52.358;9.752;2023-06-19T03:58:41;100359.00;;;30.61;26.90
16613;BME280;8419;52.358;9.752;2023-06-19T04:01:26;100359.00;;;30.74;26.71
16613;BME280;8419;52.358;9.752;2023-06-19T04:04:13;100367.00;;;30.79;26.64
16613;BME280;8419;52.358;9.752;2023-06-19T04:06:58;100369.00;;;30.80;26.63
16613;BME280;8419;52.358;9.752;2023-06-19T04:09:44;100366.00;;;30.48;27.02
16613;BME280;8419;52.358;9.752;2023-06-19T04:12:29;100376.00;;;30.78;26.68
16613;BME280;8419;52.358;9.752;2023-06-19T04:15:17;100375.00;;;30.83;26.61
16613;BME280;8419;52.358;9.752;2023-06-19T04:18:03;100365.00;;;30.49;27.08
16613;BME280;8419;52.358;9.752;2023-06-19T04:20:48;100367.00;;;30.44;27.16
16613;BME280;8419;52.358;9.752;2023-06-19T04:23:33;100360.00;;;30.44;27.16
16613;BME280;8419;52.358;9.752;2023-06-19T04:26:18;100371.00;;;30.46;27.19
16613;BME280;8419;52.358;9.752;2023-06-19T04:29:04;100370.00;;;30.50;27.16
16613;BME280;8419;52.358;9.752;2023-06-19T04:31:51;100378.00;;;30.46;27.22
16613;BME280;8419;52.358;9.752;2023-06-19T04:34:36;100375.00;;;30.37;27.38
16613;BME280;8419;52.358;9.752;2023-06-19T04:37:22;100380.00;;;30.45;27.33
16613;BME280;8419;52.358;9.752;2023-06-19T04:40:09;100380.00;;;30.37;27.43
16613;BME280;8419;52.358;9.752;2023-06-19T04:42:56;100390.00;;;30.36;27.51
16613;BME280;8419;52.358;9.752;2023-06-19T04:45:41;100391.00;;;30.37;27.57
16613;BME280;8419;52.358;9.752;2023-06-19T04:48:27;100384.00;;;30.41;27.93
16613;BME280;8419;52.358;9.752;2023-06-19T04:51:14;100382.00;;;30.43;28.23
16613;BME280;8419;52.358;9.752;2023-06-19T04:54:00;100385.00;;;30.33;28.70
16613;BME280;8419;52.358;9.752;2023-06-19T04:56:45;100373.00;;;30.23;28.99
16613;BME280;8419;52.358;9.752;2023-06-19T04:59:31;100387.00;;;30.21;29.26
16613;BME280;8419;52.358;9.752;2023-06-19T05:02:16;100382.00;;;30.18;29.63
16613;BME280;8419;52.358;9.752;2023-06-19T05:05:02;100382.00;;;30.18;29.84
16613;BME280;8419;52.358;9.752;2023-06-19T05:07:47;100375.00;;;30.07;30.26
16613;BME280;8419;52.358;9.752;2023-06-19T05:10:33;100385.00;;;30.10;30.19
16613;BME280;8419;52.358;9.752;2023-06-19T05:13:20;100396.00;;;29.97;30.26
16613;BME280;8419;52.358;9.752;2023-06-19T05:16:05;100405.00;;;29.91;30.41
16613;BME280;8419;52.358;9.752;2023-06-19T05:18:51;100398.00;;;29.92;30.57
16613;BME280;8419;52.358;9.752;2023-06-19T05:21:37;100395.00;;;29.86;30.85
16613;BME280;8419;52.358;9.752;2023-06-19T05:24:22;100385.00;;;29.94;30.70
16613;BME280;8419;52.358;9.752;2023-06-19T05:27:08;100399.00;;;29.99;30.68
16613;BME280;8419;52.358;9.752;2023-06-19T05:29:56;100404.00;;;29.89;30.74
16613;BME280;8419;52.358;9.752;2023-06-19T05:32:41;100407.00;;;29.92;30.83
16613;BME280;8419;52.358;9.752;2023-06-19T05:35:26;100411.00;;;30.09;30.68
16613;BME280;8419;52.358;9.752;2023-06-19T05:38:13;100403.00;;;30.18;30.58
16613;BME280;8419;52.358;9.752;2023-06-19T05:40:58;100399.00;;;30.19;30.58
16613;BME280;8419;52.358;9.752;2023-06-19T05:43:44;100399.00;;;30.27;30.42
16613;BME280;8419;52.358;9.752;2023-06-19T05:46:30;100408.00;;;30.52;30.06
16613;BME280;8419;52.358;9.752;2023-06-19T05:49:15;100408.00;;;30.67;29.95
16613;BME280;8419;52.358;9.752;2023-06-19T05:52:01;100408.00;;;30.75;29.84
16613;BME280;8419;52.358;9.752;2023-06-19T05:54:47;100410.00;;;30.83;29.82
16613;BME280;8419;52.358;9.752;2023-06-19T05:57:32;100420.00;;;30.90;29.80
16613;BME280;8419;52.358;9.752;2023-06-19T06:00:19;100418.00;;;30.92;29.89
16613;BME280;8419;52.358;9.752;2023-06-19T06:03:05;100418.00;;;30.95;29.96
16613;BME280;8419;52.358;9.752;2023-06-19T06:05:53;100424.00;;;30.93;30.05
16613;BME280;8419;52.358;9.752;2023-06-19T06:08:47;100426.00;;;31.13;29.98
16613;BME280;8419;52.358;9.752;2023-06-19T06:11:32;100428.00;;;30.99;30.13
16613;BME280;8419;52.358;9.752;2023-06-19T06:14:20;100429.00;;;31.16;30.05
16613;BME280;8419;52.358;9.752;2023-06-19T06:17:09;100424.00;;;31.10;30.18
16613;BME280;8419;52.358;9.752;2023-06-19T06:19:55;100425.00;;;31.14;30.21
16613;BME280;8419;52.358;9.752;2023-06-19T06:22:40;100432.00;;;31.15;30.24
16613;BME280;8419;52.358;9.752;2023-06-19T06:25:26;100434.00;;;31.09;30.28
16613;BME280;8419;52.358;9.752;2023-06-19T06:28:11;100442.00;;;31.02;30.32
16613;BME280;8419;52.358;9.752;2023-06-19T06:30:57;100442.00;;;31.13;30.26
16613;BME280;8419;52.358;9.752;2023-06-19T06:33:43;100436.00;;;31.10;30.43
16613;BME280;8419;52.358;9.752;2023-06-19T06:36:28;100443.00;;;31.05;30.74
16613;BME280;8419;52.358;9.752;2023-06-19T06:39:14;100444.00;;;31.12;30.96
16613;BME280;8419;52.358;9.752;2023-06-19T06:41:59;100454.00;;;31.21;30.89
16613;BME280;8419;52.358;9.752;2023-06-19T06:44:45;100457.00;;;31.23;30.88
16613;BME280;8419;52.358;9.752;2023-06-19T06:47:30;100456.00;;;31.18;30.88
16613;BME280;8419;52.358;9.752;2023-06-19T06:50:16;100447.00;;;31.17;30.87
16613;BME280;8419;52.358;9.752;2023-06-19T06:53:02;100458.00;;;31.34;30.76
16613;BME280;8419;52.358;9.752;2023-06-19T06:55:47;100460.00;;;31.51;30.50
16613;BME280;8419;52.358;9.752;2023-06-19T06:58:33;100462.00;;;31.59;30.34
16613;BME280;8419;52.358;9.752;2023-06-19T07:01:19;100464.00;;;31.57;30.25
16613;BME280;8419;52.358;9.752;2023-06-19T07:04:05;100473.00;;;31.56;30.20
16613;BME280;8419;52.358;9.752;2023-06-19T07:06:50;100469.00;;;31.47;30.17
16613;BME280;8419;52.358;9.752;2023-06-19T07:09:36;100466.00;;;31.43;30.14
16613;BME280;8419;52.358;9.752;2023-06-19T07:12:21;100466.00;;;31.39;30.13
16613;BME280;8419;52.358;9.752;2023-06-19T07:15:08;100475.00;;;31.47;29.96
16613;BME280;8419;52.358;9.752;2023-06-19T07:17:54;100472.00;;;31.39;30.00
16613;BME280;8419;52.358;9.752;2023-06-19T07:20:39;100476.00;;;31.33;30.07
16613;BME280;8419;52.358;9.752;2023-06-19T07:23:24;100472.00;;;31.32;30.05
16613;BME280;8419;52.358;9.752;2023-06-19T07:26:13;100472.00;;;31.45;29.82
16613;BME280;8419;52.358;9.752;2023-06-19T07:28:58;100475.00;;;31.52;29.66
16613;BME280;8419;52.358;9.752;2023-06-19T07:31:44;100473.00;;;31.81;29.32
16613;BME280;8419;52.358;9.752;2023-06-19T07:34:29;100485.00;;;32.04;29.08
16613;BME280;8419;52.358;9.752;2023-06-19T07:37:15;100479.00;;;32.26;28.81
16613;BME280;8419;52.358;9.752;2023-06-19T07:40:03;100477.00;;;32.23;28.92
16613;BME280;8419;52.358;9.752;2023-06-19T07:42:48;100475.00;;;32.14;29.09
16613;BME280;8419;52.358;9.752;2023-06-19T07:45:34;100484.00;;;32.14;29.22
16613;BME280;8419;52.358;9.752;2023-06-19T07:48:21;100486.00;;;32.20;29.22
16613;BME280;8419;52.358;9.752;2023-06-19T07:51:06;100488.00;;;32.18;29.34
16613;BME280;8419;52.358;9.752;2023-06-19T07:53:51;100491.00;;;32.17;29.44
16613;BME280;8419;52.358;9.752;2023-06-19T07:56:36;100493.00;;;32.24;29.39
16613;BME280;8419;52.358;9.752;2023-06-19T07:59:22;100490.00;;;32.39;29.33
16613;BME280;8419;52.358;9.752;2023-06-19T08:02:07;100499.00;;;32.35;29.49
16613;BME280;8419;52.358;9.752;2023-06-19T08:04:52;100496.00;;;32.36;29.54
16613;BME280;8419;52.358;9.752;2023-06-19T08:07:38;100494.00;;;32.48;29.52
16613;BME280;8419;52.358;9.752;2023-06-19T08:10:24;100492.00;;;32.54;29.51
16613;BME280;8419;52.358;9.752;2023-06-19T08:13:09;100492.00;;;32.54;29.62
16613;BME280;8419;52.358;9.752;2023-06-19T08:15:56;100488.00;;;32.61;29.60
16613;BME280;8419;52.358;9.752;2023-06-19T08:18:41;100500.00;;;32.70;29.64
16613;BME280;8419;52.358;9.752;2023-06-19T08:21:27;100493.00;;;32.80;29.59
16613;BME280;8419;52.358;9.752;2023-06-19T08:24:13;100488.00;;;32.78;29.75
16613;BME280;8419;52.358;9.752;2023-06-19T08:26:58;100491.00;;;32.82;29.82
16613;BME280;8419;52.358;9.752;2023-06-19T08:29:44;100492.00;;;33.00;29.60
16613;BME280;8419;52.358;9.752;2023-06-19T08:32:29;100494.00;;;33.09;29.59
16613;BME280;8419;52.358;9.752;2023-06-19T08:35:16;100494.00;;;33.19;29.54
16613;BME280;8419;52.358;9.752;2023-06-19T08:38:01;100484.00;;;33.41;29.32
16613;BME280;8419;52.358;9.752;2023-06-19T08:40:47;100485.00;;;33.59;29.18
16613;BME280;8419;52.358;9.752;2023-06-19T08:43:33;100488.00;;;33.64;29.25
16613;BME280;8419;52.358;9.752;2023-06-19T08:46:19;100489.00;;;33.64;29.36
16613;BME280;8419;52.358;9.752;2023-06-19T08:49:04;100489.00;;;33.76;29.27
16613;BME280;8419;52.358;9.752;2023-06-19T08:51:51;100494.00;;;33.67;29.33
16613;BME280;8419;52.358;9.752;2023-06-19T08:54:36;100495.00;;;33.73;29.36
16613;BME280;8419;52.358;9.752;2023-06-19T08:57:35;100493.00;;;33.72;29.47
16613;BME280;8419;52.358;9.752;2023-06-19T09:00:25;100486.00;;;33.56;29.75
16613;BME280;8419;52.358;9.752;2023-06-19T09:03:10;100482.00;;;33.47;29.87
16613;BME280;8419;52.358;9.752;2023-06-19T09:05:58;100493.00;;;33.52;29.84
16613;BME280;8419;52.358;9.752;2023-06-19T09:08:44;100502.00;;;33.69;29.60
16613;BME280;8419;52.358;9.752;2023-06-19T09:11:29;100499.00;;;33.84;29.45
16613;BME280;8419;52.358;9.752;2023-06-19T09:14:15;100505.00;;;33.79;29.69
16613;BME280;8419;52.358;9.752;2023-06-19T09:17:01;100499.00;;;33.84;29.72
16613;BME280;8419;52.358;9.752;2023-06-19T09:19:51;100503.00;;;33.90;29.64
16613;BME280;8419;52.358;9.752;2023-06-19T09:22:38;100494.00;;;33.97;29.54
16613;BME280;8419;52.358;9.752;2023-06-19T09:25:23;100484.00;;;33.96;29.57
16613;BME280;8419;52.358;9.752;2023-06-19T09:28:20;100501.00;;;33.95;29.71
16613;BME280;8419;52.358;9.752;2023-06-19T09:31:06;100493.00;;;34.03;29.68
16613;BME280;8419;52.358;9.752;2023-06-19T09:33:52;100494.00;;;34.04;29.71
16613;BME280;8419;52.358;9.752;2023-06-19T09:36:38;100499.00;;;33.97;29.79
16613;BME280;8419;52.358;9.752;2023-06-19T09:39:28;100508.00;;;34.04;29.64
16613;BME280;8419;52.358;9.752;2023-06-19T09:42:15;100501.00;;;33.93;29.80
16613;BME280;8419;52.358;9.752;2023-06-19T09:45:03;100502.00;;;34.15;29.46
16613;BME280;8419;52.358;9.752;2023-06-19T09:47:52;100502.00;;;34.32;29.39
16613;BME280;8419;52.358;9.752;2023-06-19T09:50:40;100506.00;;;34.55;29.12
16613;BME280;8419;52.358;9.752;2023-06-19T09:53:27;100507.00;;;34.78;28.83
16613;BME280;8419;52.358;9.752;2023-06-19T09:56:13;100521.00;;;34.99;28.68
16613;BME280;8419;52.358;9.752;2023-06-19T09:58:59;100526.00;;;35.12;28.44
16613;BME280;8419;52.358;9.752;2023-06-19T10:01:45;100528.00;;;35.33;28.20
16613;BME280;8419;52.358;9.752;2023-06-19T10:04:42;100530.00;;;35.49;27.96
16613;BME280;8419;52.358;9.752;2023-06-19T10:07:34;100533.00;;;35.41;28.09
16613;BME280;8419;52.358;9.752;2023-06-19T10:10:24;100533.00;;;35.46;28.05
16613;BME280;8419;52.358;9.752;2023-06-19T10:13:14;100534.00;;;35.38;28.22
16613;BME280;8419;52.358;9.752;2023-06-19T10:16:00;100529.00;;;35.42;28.24
16613;BME280;8419;52.358;9.752;2023-06-19T10:18:46;100538.00;;;35.47;28.26
16613;BME280;8419;52.358;9.752;2023-06-19T10:21:44;100538.00;;;35.57;28.24
16613;BME280;8419;52.358;9.752;2023-06-19T10:24:31;100548.00;;;35.53;28.30
16613;BME280;8419;52.358;9.752;2023-06-19T10:27:21;100554.00;;;35.57;28.22
16613;BME280;8419;52.358;9.752;2023-06-19T10:30:17;100539.00;;;35.44;28.38
16613;BME280;8419;52.358;9.752;2023-06-19T10:33:03;100543.00;;;35.55;28.32
16613;BME280;8419;52.358;9.752;2023-06-19T10:35:49;100543.00;;;35.59;28.43
16613;BME280;8419;52.358;9.752;2023-06-19T10:38:36;100544.00;;;35.78;28.37
16613;BME280;8419;52.358;9.752;2023-06-19T10:41:23;100539.00;;;35.83;28.34
16613;BME280;8419;52.358;9.752;2023-06-19T10:44:10;100537.00;;;35.90;28.15
16613;BME280;8419;52.358;9.752;2023-06-19T10:46:58;100547.00;;;35.83;28.32
16613;BME280;8419;52.358;9.752;2023-06-19T10:49:44;100533.00;;;35.94;28.11
16613;BME280;8419;52.358;9.752;2023-06-19T10:52:31;100536.00;;;35.71;28.34
16613;BME280;8419;52.358;9.752;2023-06-19T10:55:16;100539.00;;;35.64;28.45
16613;BME280;8419;52.358;9.752;2023-06-19T10:58:02;100537.00;;;35.83;28.31
16613;BME280;8419;52.358;9.752;2023-06-19T11:00:47;100534.00;;;36.23;27.81
16613;BME280;8419;52.358;9.752;2023-06-19T11:03:33;100552.00;;;36.37;27.66
16613;BME280;8419;52.358;9.752;2023-06-19T11:06:20;100540.00;;;36.27;27.67
16613;BME280;8419;52.358;9.752;2023-06-19T11:09:07;100541.00;;;35.85;28.21
16613;BME280;8419;52.358;9.752;2023-06-19T11:11:53;100556.00;;;35.81;28.17
16613;BME280;8419;52.358;9.752;2023-06-19T11:14:38;100542.00;;;35.91;28.06
16613;BME280;8419;52.358;9.752;2023-06-19T11:17:26;100540.00;;;35.97;27.84
16613;BME280;8419;52.358;9.752;2023-06-19T11:20:13;100538.00;;;35.96;27.78
16613;BME280;8419;52.358;9.752;2023-06-19T11:23:00;100541.00;;;35.89;27.79
16613;BME280;8419;52.358;9.752;2023-06-19T11:25:45;100540.00;;;36.00;27.73
16613;BME280;8419;52.358;9.752;2023-06-19T11:28:31;100543.00;;;36.02;27.67
16613;BME280;8419;52.358;9.752;2023-06-19T11:31:17;100543.00;;;36.22;27.41
16613;BME280;8419;52.358;9.752;2023-06-19T11:34:09;100548.00;;;36.17;27.35
16613;BME280;8419;52.358;9.752;2023-06-19T11:36:56;100544.00;;;36.14;27.28
16613;BME280;8419;52.358;9.752;2023-06-19T11:39:44;100549.00;;;36.32;27.15
16613;BME280;8419;52.358;9.752;2023-06-19T11:42:29;100545.00;;;36.57;26.77
16613;BME280;8419;52.358;9.752;2023-06-19T11:45:21;100553.00;;;36.50;26.57
16613;BME280;8419;52.358;9.752;2023-06-19T11:48:07;100553.00;;;36.52;26.50
16613;BME280;8419;52.358;9.752;2023-06-19T11:50:53;100561.00;;;36.64;26.31
16613;BME280;8419;52.358;9.752;2023-06-19T11:53:39;100563.00;;;37.06;25.79
16613;BME280;8419;52.358;9.752;2023-06-19T11:56:26;100566.00;;;36.84;25.81
16613;BME280;8419;52.358;9.752;2023-06-19T11:59:13;100560.00;;;36.74;25.98
16613;BME280;8419;52.358;9.752;2023-06-19T12:01:59;100560.00;;;36.72;25.98
16613;BME280;8419;52.358;9.752;2023-06-19T12:04:45;100568.00;;;36.52;26.07
16613;BME280;8419;52.358;9.752;2023-06-19T12:07:31;100562.00;;;36.60;26.03
16613;BME280;8419;52.358;9.752;2023-06-19T12:10:16;100560.00;;;36.79;25.91
16613;BME280;8419;52.358;9.752;2023-06-19T12:13:04;100567.00;;;37.05;25.82
16613;BME280;8419;52.358;9.752;2023-06-19T12:15:50;100562.00;;;37.39;25.52
16613;BME280;8419;52.358;9.752;2023-06-19T12:18:46;100567.00;;;37.07;25.88
16613;BME280;8419;52.358;9.752;2023-06-19T12:21:32;100561.00;;;36.83;26.27
16613;BME280;8419;52.358;9.752;2023-06-19T12:24:24;100574.00;;;37.19;25.92
16613;BME280;8419;52.358;9.752;2023-06-19T12:27:12;100572.00;;;38.02;25.21
16613;BME280;8419;52.358;9.752;2023-06-19T12:29:57;100573.00;;;38.30;24.61
16613;BME280;8419;52.358;9.752;2023-06-19T12:35:41;100577.00;;;39.09;23.83
16613;BME280;8419;52.358;9.752;2023-06-19T12:38:28;100565.00;;;39.52;23.29
16613;BME280;8419;52.358;9.752;2023-06-19T12:41:13;100573.00;;;39.20;23.20
16613;BME280;8419;52.358;9.752;2023-06-19T12:43:59;100577.00;;;38.79;23.67
16613;BME280;8419;52.358;9.752;2023-06-19T12:46:45;100592.00;;;38.48;23.90
16613;BME280;8419;52.358;9.752;2023-06-19T12:49:30;100590.00;;;38.07;24.26
16613;BME280;8419;52.358;9.752;2023-06-19T12:52:17;100596.00;;;38.62;23.61
16613;BME280;8419;52.358;9.752;2023-06-19T12:55:04;100595.00;;;39.63;22.37
16613;BME280;8419;52.358;9.752;2023-06-19T12:57:50;100584.00;;;40.23;21.91
16613;BME280;8419;52.358;9.752;2023-06-19T13:00:35;100597.00;;;40.26;21.88
16613;BME280;8419;52.358;9.752;2023-06-19T13:03:20;100590.00;;;40.17;21.94
16613;BME280;8419;52.358;9.752;2023-06-19T13:06:06;100601.00;;;39.88;22.32
16613;BME280;8419;52.358;9.752;2023-06-19T13:08:52;100590.00;;;40.33;21.89
16613;BME280;8419;52.358;9.752;2023-06-19T13:11:37;100584.00;;;39.81;22.25
16613;BME280;8419;52.358;9.752;2023-06-19T13:14:23;100586.00;;;40.03;22.09
16613;BME280;8419;52.358;9.752;2023-06-19T13:17:09;100581.00;;;40.13;22.08
16613;BME280;8419;52.358;9.752;2023-06-19T13:19:54;100595.00;;;40.75;21.22
16613;BME280;8419;52.358;9.752;2023-06-19T13:22:39;100587.00;;;40.99;20.65
16613;BME280;8419;52.358;9.752;2023-06-19T13:25:25;100587.00;;;41.55;20.07
16613;BME280;8419;52.358;9.752;2023-06-19T13:28:11;100598.00;;;41.67;19.84
16613;BME280;8419;52.358;9.752;2023-06-19T13:30:57;100592.00;;;41.73;20.00
16613;BME280;8419;52.358;9.752;2023-06-19T13:33:42;100593.00;;;41.89;19.85
16613;BME280;8419;52.358;9.752;2023-06-19T13:36:28;100588.00;;;41.37;20.37
16613;BME280;8419;52.358;9.752;2023-06-19T13:39:13;100595.00;;;40.69;20.83
16613;BME280;8419;52.358;9.752;2023-06-19T13:41:59;100586.00;;;40.29;21.18
16613;BME280;8419;52.358;9.752;2023-06-19T13:44:45;100592.00;;;40.06;21.37
16613;BME280;8419;52.358;9.752;2023-06-19T13:47:31;100586.00;;;39.95;21.56
16613;BME280;8419;52.358;9.752;2023-06-19T13:50:17;100597.00;;;39.82;21.80
16613;BME280;8419;52.358;9.752;2023-06-19T13:53:04;100586.00;;;39.82;21.80
16613;BME280;8419;52.358;9.752;2023-06-19T13:55:49;100595.00;;;40.52;20.98
16613;BME280;8419;52.358;9.752;2023-06-19T13:58:35;100602.00;;;42.05;19.67
16613;BME280;8419;52.358;9.752;2023-06-19T14:01:20;100590.00;;;43.03;18.75
16613;BME280;8419;52.358;9.752;2023-06-19T14:04:06;100587.00;;;43.62;18.16
16613;BME280;8419;52.358;9.752;2023-06-19T14:06:52;100598.00;;;44.00;17.50
16613;BME280;8419;52.358;9.752;2023-06-19T14:09:39;100598.00;;;44.39;17.10
16613;BME280;8419;52.358;9.752;2023-06-19T14:12:26;100603.00;;;44.54;16.95
16613;BME280;8419;52.358;9.752;2023-06-19T14:15:12;100603.00;;;43.92;17.26
16613;BME280;8419;52.358;9.752;2023-06-19T14:17:57;100591.00;;;43.56;17.52
16613;BME280;8419;52.358;9.752;2023-06-19T14:20:43;100609.00;;;43.11;17.84
16613;BME280;8419;52.358;9.752;2023-06-19T14:23:29;100606.00;;;42.67;18.17
16613;BME280;8419;52.358;9.752;2023-06-19T14:26:15;100607.00;;;42.25;18.62
16613;BME280;8419;52.358;9.752;2023-06-19T14:29:01;100603.00;;;42.19;18.72
16613;BME280;8419;52.358;9.752;2023-06-19T14:31:46;100600.00;;;41.36;19.26
16613;BME280;8419;52.358;9.752;2023-06-19T14:34:32;100600.00;;;40.34;20.13
16613;BME280;8419;52.358;9.752;2023-06-19T14:37:18;100598.00;;;39.54;20.88
16613;BME280;8419;52.358;9.752;2023-06-19T14:40:06;100601.00;;;38.97;21.49
16613;BME280;8419;52.358;9.752;2023-06-19T14:42:51;100596.00;;;38.77;21.79